createdAt,value
2022-10-16T00:02:05.803Z,25.20
2022-10-16T00:07:08.199Z,26.20
2022-10-16T00:12:10.789Z,24.40
2022-10-16T00:17:13.147Z,25.93
2022-10-16T00:22:15.514Z,23.97
2022-10-16T00:27:18.249Z,23.87
2022-10-16T00:32:21.437Z,23.03
2022-10-16T00:37:23.789Z,22.27
2022-10-16T00:42:27.296Z,23.00
2022-10-16T00:47:39.852Z,19.43
2022-10-16T00:52:46.718Z,20.37
2022-10-16T00:57:49.963Z,18.17
2022-10-16T01:03:00.909Z,24.93
2022-10-16T01:08:37.594Z,19.37
2022-10-16T01:13:43.686Z,19.90
2022-10-16T01:18:58.955Z,18.50
2022-10-16T01:24:20.069Z,19.30
2022-10-16T01:29:26.781Z,18.80
2022-10-16T01:34:52.084Z,18.70
2022-10-16T01:39:59.624Z,19.47
2022-10-16T01:45:03.837Z,39.47
2022-10-16T01:50:07.800Z,20.87
2022-10-16T01:55:13.660Z,18.43
2022-10-16T02:00:20.123Z,17.97
2022-10-16T02:05:25.174Z,21.80
2022-10-16T02:10:32.265Z,22.63
2022-10-16T02:15:35.320Z,18.60
2022-10-16T02:21:06.385Z,17.03
2022-10-16T02:26:12.770Z,17.87
2022-10-16T02:31:22.790Z,17.27
2022-10-16T02:36:26.237Z,17.30
2022-10-16T02:41:28.938Z,19.50
2022-10-16T02:46:31.377Z,21.20
2022-10-16T02:51:33.764Z,17.63
2022-10-16T02:56:36.139Z,17.23
2022-10-16T03:01:38.632Z,26.80
2022-10-16T03:06:41.004Z,18.80
2022-10-16T03:11:43.403Z,17.93
2022-10-16T03:16:45.805Z,17.70
2022-10-16T03:21:48.187Z,18.70
2022-10-16T03:26:50.535Z,21.77
2022-10-16T03:31:53.020Z,18.73
2022-10-16T03:36:55.417Z,18.17
2022-10-16T03:41:57.793Z,17.60
2022-10-16T03:47:00.176Z,17.10
2022-10-16T03:52:02.527Z,17.53
2022-10-16T03:57:04.862Z,19.03
2022-10-16T04:02:07.210Z,17.40
2022-10-16T04:07:09.708Z,18.23
2022-10-16T04:12:12.150Z,16.97
2022-10-16T04:17:14.579Z,17.13
2022-10-16T04:22:17.074Z,19.13
2022-10-16T04:27:19.518Z,18.17
2022-10-16T04:32:22.060Z,16.93
2022-10-16T04:37:26.190Z,42.70
2022-10-16T04:42:28.771Z,20.07
2022-10-16T04:47:31.163Z,22.47
2022-10-16T04:57:41.566Z,19.63
2022-10-16T05:02:43.960Z,48.10
2022-10-16T05:07:47.645Z,21.10
2022-10-16T05:12:50.038Z,18.80
2022-10-16T05:17:55.824Z,39.83
2022-10-16T05:22:58.248Z,21.13
2022-10-16T05:28:00.617Z,18.40
2022-10-16T05:33:03.134Z,18.10
2022-10-16T05:38:05.463Z,18.33
2022-10-16T05:43:07.772Z,18.77
2022-10-16T05:48:10.280Z,20.50
2022-10-16T05:53:12.614Z,22.87
2022-10-16T05:58:14.940Z,25.30
2022-10-16T06:03:17.281Z,20.07
2022-10-16T06:08:21.060Z,18.77
2022-10-16T06:13:23.451Z,19.47
2022-10-16T06:18:27.036Z,18.07
2022-10-16T06:23:29.740Z,17.47
2022-10-16T06:28:32.190Z,17.63
2022-10-16T06:33:35.414Z,17.30
2022-10-16T06:38:38.857Z,16.57
2022-10-16T06:43:41.304Z,16.77
2022-10-16T06:48:44.173Z,16.13
2022-10-16T06:54:02.913Z,18.37
2022-10-16T06:59:06.448Z,16.33
2022-10-16T07:04:08.904Z,16.37
2022-10-16T07:09:12.013Z,16.30
2022-10-16T07:14:20.032Z,16.00
2022-10-16T07:19:22.532Z,16.30
2022-10-16T07:24:25.898Z,15.57
2022-10-16T07:29:28.530Z,14.47
2022-10-16T07:34:30.868Z,13.43
2022-10-16T07:39:33.249Z,14.53
2022-10-16T07:44:35.719Z,13.13
2022-10-16T07:49:38.187Z,12.93
2022-10-16T07:54:40.570Z,12.87
2022-10-16T07:59:42.941Z,12.67
2022-10-16T08:04:47.972Z,12.27
2022-10-16T08:09:52.579Z,12.13
2022-10-16T08:14:54.966Z,12.13
2022-10-16T08:19:57.351Z,11.90
2022-10-16T08:24:59.693Z,11.87
2022-10-16T08:30:02.123Z,12.27
2022-10-16T08:35:04.761Z,24.97
2022-10-16T08:40:15.872Z,48.70
2022-10-16T08:45:21.087Z,25.10
2022-10-16T08:50:29.489Z,12.33
2022-10-16T08:55:50.189Z,9.50
2022-10-16T09:00:56.954Z,8.40
2022-10-16T09:06:22.102Z,10.17
2022-10-16T09:11:43.122Z,9.10
2022-10-16T09:16:52.071Z,11.07
2022-10-16T09:21:56.701Z,10.17
2022-10-16T09:26:59.049Z,12.20
2022-10-16T09:32:14.787Z,8.80
2022-10-16T09:37:20.333Z,9.17
2022-10-16T09:42:32.465Z,7.40
2022-10-16T09:47:45.205Z,7.83
2022-10-16T09:52:47.591Z,7.30
2022-10-16T09:57:54.507Z,6.73
2022-10-16T10:02:56.957Z,6.83
2022-10-16T10:08:07.069Z,6.60
2022-10-16T10:13:21.614Z,6.77
2022-10-16T10:18:25.013Z,6.67
2022-10-16T10:23:29.523Z,5.93
2022-10-16T10:28:49.164Z,6.50
2022-10-16T10:34:08.029Z,5.63
2022-10-16T10:45:04.801Z,6.90
2022-10-16T10:50:25.415Z,6.60
2022-10-16T10:55:48.562Z,6.80
2022-10-16T11:01:09.373Z,6.47
2022-10-16T11:06:18.984Z,5.90
2022-10-16T11:11:31.520Z,5.93
2022-10-16T11:16:40.001Z,5.73
2022-10-16T11:21:51.527Z,5.13
2022-10-16T11:26:56.276Z,4.63
2022-10-16T11:32:06.716Z,5.20
2022-10-16T11:37:28.195Z,4.43
2022-10-16T11:42:40.975Z,4.40
2022-10-16T11:47:59.235Z,4.70
2022-10-16T11:53:02.346Z,5.73
2022-10-16T11:58:24.110Z,4.30
2022-10-16T12:03:50.760Z,3.80
2022-10-16T12:08:55.250Z,3.80
2022-10-16T12:14:11.258Z,3.07
2022-10-16T12:19:17.093Z,3.77
2022-10-16T12:24:33.684Z,4.23
2022-10-16T12:29:43.879Z,4.27
2022-10-16T12:34:46.479Z,4.00
2022-10-16T12:39:49.905Z,4.20
2022-10-16T12:44:53.283Z,4.77
2022-10-16T12:49:56.592Z,3.40
2022-10-16T12:55:02.403Z,3.90
2022-10-16T13:00:35.543Z,3.30
2022-10-16T13:05:43.903Z,2.20
2022-10-16T13:11:31.564Z,3.70
2022-10-16T13:16:58.344Z,1.90
2022-10-16T13:22:22.084Z,2.30
2022-10-16T13:27:27.260Z,2.30
2022-10-16T13:32:30.255Z,1.97
2022-10-16T13:37:32.579Z,2.00
2022-10-16T13:42:35.010Z,5.53
2022-10-16T13:47:37.351Z,2.63
2022-10-16T13:52:40.043Z,2.50
2022-10-16T13:57:42.690Z,2.63
2022-10-16T14:02:45.261Z,2.60
2022-10-16T14:07:51.396Z,3.10
2022-10-16T14:13:05.404Z,3.80
2022-10-16T14:18:07.814Z,8.00
2022-10-16T14:23:19.420Z,2.90
2022-10-16T14:28:24.306Z,2.60
2022-10-16T14:33:34.818Z,2.97
2022-10-16T14:38:39.373Z,2.83
2022-10-16T14:43:43.490Z,3.03
2022-10-16T14:48:50.782Z,3.10
2022-10-16T14:53:57.805Z,3.20
2022-10-16T14:59:03.453Z,3.37
2022-10-16T15:04:05.859Z,3.37
2022-10-16T15:09:08.418Z,2.70
2022-10-16T15:19:21.134Z,3.10
2022-10-16T15:24:23.456Z,2.50
2022-10-16T15:29:25.795Z,3.03
2022-10-16T15:34:28.060Z,3.90
2022-10-16T15:39:30.363Z,3.63
2022-10-16T15:44:32.745Z,6.83
2022-10-16T15:49:35.070Z,6.37
2022-10-16T15:54:37.355Z,7.30
2022-10-16T15:59:39.642Z,5.00
2022-10-16T16:04:44.304Z,4.30
2022-10-16T16:09:47.367Z,4.63
2022-10-16T16:14:50.174Z,16.73
2022-10-16T16:19:52.677Z,8.03
2022-10-16T16:24:55.036Z,16.20
2022-10-16T16:29:57.571Z,8.03
2022-10-16T16:35:00.033Z,12.33
2022-10-16T16:40:03.374Z,16.37
2022-10-16T16:45:06.361Z,17.57
2022-10-16T16:50:08.945Z,25.07
2022-10-16T16:55:11.241Z,22.37
2022-10-16T17:00:13.969Z,20.37
2022-10-16T17:05:16.910Z,12.73
2022-10-16T17:10:19.340Z,12.30
2022-10-16T17:15:21.752Z,34.27
2022-10-16T17:20:24.165Z,25.47
2022-10-16T17:25:28.437Z,27.73
2022-10-16T17:30:31.891Z,32.90
2022-10-16T17:35:42.838Z,23.60
2022-10-16T17:40:45.230Z,19.37
2022-10-16T17:45:47.733Z,17.00
2022-10-16T17:50:50.125Z,15.50
2022-10-16T17:55:57.072Z,16.63
2022-10-16T18:00:59.596Z,78.17
2022-10-16T18:06:02.003Z,26.93
2022-10-16T18:11:05.233Z,40.23
2022-10-16T18:16:10.692Z,29.07
2022-10-16T18:21:15.520Z,34.73
2022-10-16T18:26:18.039Z,24.60
2022-10-16T18:31:21.206Z,25.20
2022-10-16T18:36:26.560Z,20.97
2022-10-16T18:41:30.015Z,23.70
2022-10-16T18:46:32.993Z,27.53
2022-10-16T18:51:40.841Z,26.37
2022-10-16T18:56:43.292Z,27.03
2022-10-16T19:01:47.635Z,25.63
2022-10-16T19:06:53.977Z,27.53
2022-10-16T19:11:57.501Z,28.97
2022-10-16T19:17:00.135Z,30.20
2022-10-16T19:22:12.191Z,30.20
2022-10-16T19:27:14.469Z,35.63
2022-10-16T19:32:16.777Z,28.23
2022-10-16T19:37:19.221Z,37.37
2022-10-16T19:42:21.607Z,36.60
2022-10-16T19:47:24.763Z,35.43
2022-10-16T19:52:27.435Z,38.67
2022-10-16T19:57:30.150Z,45.67
2022-10-16T20:02:32.955Z,31.40
2022-10-16T20:07:36.095Z,35.97
2022-10-16T20:12:38.638Z,47.07
2022-10-16T20:17:41.661Z,36.37
2022-10-16T20:22:44.089Z,32.37
2022-10-16T20:27:46.501Z,34.10
2022-10-16T20:32:48.888Z,38.20
2022-10-16T20:37:51.244Z,36.90
2022-10-16T20:42:53.619Z,30.47
2022-10-16T20:47:56.015Z,31.50
2022-10-16T20:52:59.541Z,34.23
2022-10-16T20:58:02.005Z,34.90
2022-10-16T21:03:04.489Z,37.57
2022-10-16T21:08:07.041Z,39.67
2022-10-16T21:13:09.440Z,35.13
2022-10-16T21:18:12.829Z,49.57
2022-10-16T21:23:15.249Z,40.47
2022-10-16T21:28:17.895Z,37.20
2022-10-16T21:33:20.241Z,28.67
2022-10-16T21:38:23.178Z,30.90
2022-10-16T21:43:25.550Z,36.30
2022-10-16T21:48:27.908Z,39.20
2022-10-16T21:53:30.319Z,42.27
2022-10-16T21:58:33.239Z,39.80
2022-10-16T22:03:35.756Z,38.23
2022-10-16T22:08:39.626Z,37.00
2022-10-16T22:13:42.706Z,39.50
2022-10-16T22:18:45.139Z,37.87
2022-10-16T22:23:47.776Z,40.27
2022-10-16T22:28:50.373Z,42.03
2022-10-16T22:34:00.878Z,42.03
2022-10-16T22:39:03.964Z,40.90
2022-10-16T22:44:06.596Z,33.83
2022-10-16T22:49:09.024Z,33.80
2022-10-16T22:54:11.425Z,33.63
2022-10-16T22:59:13.833Z,32.00
2022-10-16T23:04:16.183Z,32.10
2022-10-16T23:09:18.617Z,32.90
2022-10-16T23:14:22.266Z,31.80
2022-10-16T23:19:24.706Z,36.50
2022-10-16T23:24:27.112Z,35.60
2022-10-16T23:29:29.790Z,32.23
2022-10-16T23:34:32.156Z,30.67
2022-10-16T23:39:34.647Z,29.50
2022-10-16T23:44:38.549Z,24.53
2022-10-16T23:49:40.967Z,20.70
2022-10-16T23:54:43.343Z,20.33
2022-10-16T23:59:45.677Z,19.63
